Time;durP1;ratioP1;P1;durP2;ratioP2;P2;SDS_P1;SDS_P2;PMS_P1;PMS_P2;Temp;Humidity;BMP_temperature;BMP_pressure;BME280_temperature;BME280_humidity;BME280_pressure;Samples;Min_cycle;Max_cycle;Signal;HPM_P1;HPM_P2
2022/11/17 00:01:41;;;;;;;8.75;8.05;;;;;;;;;;4949304;29;20054;-70
2022/11/17 00:04:07;;;;;;;11.48;8.18;;;;;;;;;;4957359;28;20456;-70
2022/11/17 00:06:32;;;;;;;9.43;8.20;;;;;;;;;;4956533;28;20082;-70
2022/11/17 00:08:58;;;;;;;9.45;8.65;;;;;;;;;;4946291;28;20069;-70
2022/11/17 00:11:23;;;;;;;8.15;7.47;;;;;;;;;;4953634;28;20517;-70
2022/11/17 00:16:33;;;;;;;9.40;8.18;;;;;;;;;;4950749;28;20046;-70
2022/11/17 00:21:42;;;;;;;9.50;7.28;;;;;;;;;;4952401;28;20043;-70
2022/11/17 00:24:08;;;;;;;8.75;8.05;;;;;;;;;;4951791;28;20437;-70
2022/11/17 00:27:00;;;;;;;7.88;7.18;;;;;;;;;;4951409;28;20410;-70
2022/11/17 00:29:21;;;;;;;6.68;6.13;;;;;;;;;;4945708;28;20417;-70
2022/11/17 00:34:30;;;;;;;6.70;6.22;;;;;;;;;;4951351;28;20524;-70
2022/11/17 00:36:56;;;;;;;7.30;6.25;;;;;;;;;;4958209;28;20030;-70
2022/11/17 00:39:22;;;;;;;9.55;7.25;;;;;;;;;;4951236;28;20031;-69
2022/11/17 00:41:48;;;;;;;8.45;7.65;;;;;;;;;;4948423;28;20035;-70
2022/11/17 00:44:14;;;;;;;6.07;5.65;;;;;;;;;;4952958;28;20050;-70
2022/11/17 00:46:41;;;;;;;8.13;7.32;;;;;;;;;;4954822;28;20602;-70
2022/11/17 00:49:07;;;;;;;8.20;7.45;;;;;;;;;;4948216;28;20065;-70
2022/11/17 00:51:33;;;;;;;11.95;7.85;;;;;;;;;;4951238;28;20067;-70
2022/11/17 00:54:00;;;;;;;8.57;7.80;;;;;;;;;;4952544;28;20070;-70
2022/11/17 00:56:26;;;;;;;9.10;7.80;;;;;;;;;;4947847;28;20035;-69
2022/11/17 00:58:51;;;;;;;6.18;5.78;;;;;;;;;;4953607;28;20093;-70
2022/11/17 01:01:18;;;;;;;9.27;7.55;;;;;;;;;;4958600;28;20042;-70
2022/11/17 01:03:43;;;;;;;7.38;6.78;;;;;;;;;;4957151;28;20039;-70
2022/11/17 01:06:12;;;;;;;8.18;6.55;;;;;;;;;;4952073;28;20395;-70
2022/11/17 01:08:38;;;;;;;6.90;6.40;;;;;;;;;;4956290;28;20102;-70
2022/11/17 01:11:12;;;;;;;7.35;6.65;;;;;;;;;;4961169;28;20039;-70
2022/11/17 01:13:39;;;;;;;7.97;6.95;;;;;;;;;;4955485;28;20042;-70
2022/11/17 01:16:11;;;;;;;8.75;7.85;;;;;;;;;;4953731;28;20027;-70
2022/11/17 01:18:38;;;;;;;9.52;7.50;;;;;;;;;;4961156;28;20046;-70
2022/11/17 01:21:06;;;;;;;8.48;7.78;;;;;;;;;;4961805;28;20027;-70
2022/11/17 01:23:32;;;;;;;7.60;7.00;;;;;;;;;;4950214;28;20035;-70
2022/11/17 01:26:08;;;;;;;8.57;7.97;;;;;;;;;;4955389;28;20094;-69
2022/11/17 01:28:35;;;;;;;9.93;8.95;;;;;;;;;;4957597;28;20487;-70
2022/11/17 01:31:12;;;;;;;6.82;6.22;;;;;;;;;;4952670;28;20042;-70
2022/11/17 01:33:38;;;;;;;10.70;7.72;;;;;;;;;;4957136;28;20042;-70
2022/11/17 01:36:07;;;;;;;8.65;7.78;;;;;;;;;;4957315;28;20027;-70
2022/11/17 01:38:32;;;;;;;7.30;6.70;;;;;;;;;;4953171;28;20596;-70
2022/11/17 01:40:59;;;;;;;8.23;7.10;;;;;;;;;;4952272;28;20046;-70
2022/11/17 01:43:56;;;;;;;7.22;6.72;;;;;;;;;;4957640;28;20717;-70
2022/11/17 01:46:30;;;;;;;7.82;7.22;;;;;;;;;;4951123;28;20070;-70
2022/11/17 01:49:00;;;;;;;8.25;7.50;;;;;;;;;;4951171;28;20039;-70
2022/11/17 01:51:28;;;;;;;8.32;7.53;;;;;;;;;;4954428;28;20031;-70
2022/11/17 01:53:54;;;;;;;8.45;7.65;;;;;;;;;;4958173;28;20069;-70
2022/11/17 01:56:26;;;;;;;7.90;7.10;;;;;;;;;;4957747;28;20466;-70
2022/11/17 01:58:59;;;;;;;8.13;7.05;;;;;;;;;;4951432;29;20027;-70
2022/11/17 02:01:24;;;;;;;11.20;7.60;;;;;;;;;;4955771;28;20045;-70
2022/11/17 02:03:50;;;;;;;7.93;7.13;;;;;;;;;;4957120;28;20046;-70
2022/11/17 02:06:25;;;;;;;11.73;7.20;;;;;;;;;;4951830;28;20046;-70
2022/11/17 02:08:52;;;;;;;9.65;6.72;;;;;;;;;;4951828;28;20038;-70
2022/11/17 02:11:19;;;;;;;6.95;6.45;;;;;;;;;;4956886;28;20042;-70
2022/11/17 02:13:45;;;;;;;7.50;6.90;;;;;;;;;;4954783;28;20218;-70
2022/11/17 02:16:13;;;;;;;6.78;6.28;;;;;;;;;;4952412;28;20032;-69
2022/11/17 02:18:41;;;;;;;6.60;6.10;;;;;;;;;;4951033;28;20035;-70
2022/11/17 02:21:09;;;;;;;7.00;6.40;;;;;;;;;;4957750;28;20039;-70
2022/11/17 02:24:09;;;;;;;6.35;5.47;;;;;;;;;;4952798;28;20043;-70
2022/11/17 02:26:53;;;;;;;5.80;5.40;;;;;;;;;;4956252;28;20051;-70
2022/11/17 02:29:35;;;;;;;7.00;6.32;;;;;;;;;;4953402;28;20206;-70
2022/11/17 02:32:16;;;;;;;7.22;6.53;;;;;;;;;;4956917;28;20061;-70
2022/11/17 02:34:45;;;;;;;6.20;5.80;;;;;;;;;;4948938;28;20039;-70
2022/11/17 02:37:35;;;;;;;6.90;6.40;;;;;;;;;;4954918;28;20481;-70
2022/11/17 02:40:29;;;;;;;9.05;6.45;;;;;;;;;;4956797;28;20151;-70
2022/11/17 02:45:54;;;;;;;6.32;5.93;;;;;;;;;;4953008;28;20391;-70
2022/11/17 02:48:33;;;;;;;7.60;5.57;;;;;;;;;;4958594;28;20061;-70
2022/11/17 02:51:00;;;;;;;6.95;5.85;;;;;;;;;;4952163;28;20043;-70
2022/11/17 02:53:27;;;;;;;6.55;6.05;;;;;;;;;;4952732;28;20058;-70
2022/11/17 02:55:53;;;;;;;5.65;5.35;;;;;;;;;;4960433;28;20068;-69
2022/11/17 02:58:20;;;;;;;5.93;5.45;;;;;;;;;;4956490;28;20053;-70
2022/11/17 03:01:23;;;;;;;6.80;6.20;;;;;;;;;;4950125;28;20035;-70
2022/11/17 03:04:00;;;;;;;6.07;5.68;;;;;;;;;;4957605;28;20035;-70
2022/11/17 03:06:46;;;;;;;6.15;5.55;;;;;;;;;;4955112;28;20038;-70
2022/11/17 03:09:23;;;;;;;6.45;5.85;;;;;;;;;;4950069;28;20088;-70
2022/11/17 03:12:05;;;;;;;7.03;6.43;;;;;;;;;;4953513;28;20570;-70
2022/11/17 03:14:31;;;;;;;7.10;6.40;;;;;;;;;;4958179;28;20096;-70
2022/11/17 03:17:15;;;;;;;6.80;6.20;;;;;;;;;;4950337;28;20110;-70
2022/11/17 03:19:45;;;;;;;6.90;6.40;;;;;;;;;;4958030;28;20714;-70
2022/11/17 03:22:20;;;;;;;7.35;6.75;;;;;;;;;;4955993;28;20082;-70
2022/11/17 03:24:49;;;;;;;7.22;6.47;;;;;;;;;;4951704;28;20118;-70
2022/11/17 03:27:24;;;;;;;9.95;8.95;;;;;;;;;;4954747;28;20077;-70
2022/11/17 03:29:56;;;;;;;7.55;6.90;;;;;;;;;;4954873;28;20047;-70
2022/11/17 03:32:23;;;;;;;8.07;7.47;;;;;;;;;;4953083;28;20035;-70
2022/11/17 03:34:54;;;;;;;6.93;6.45;;;;;;;;;;4949289;29;20035;-70
2022/11/17 03:37:22;;;;;;;7.53;6.93;;;;;;;;;;4954150;28;20042;-70
2022/11/17 03:39:52;;;;;;;8.45;7.63;;;;;;;;;;4955386;28;20118;-70
2022/11/17 03:42:23;;;;;;;12.25;9.30;;;;;;;;;;4949924;28;20039;-70
2022/11/17 03:44:54;;;;;;;12.32;9.98;;;;;;;;;;4950227;28;20553;-70
2022/11/17 03:47:24;;;;;;;13.85;9.10;;;;;;;;;;4960414;28;20101;-70
2022/11/17 03:50:15;;;;;;;8.07;7.28;;;;;;;;;;4955325;28;20063;-69
2022/11/17 03:52:43;;;;;;;7.60;6.97;;;;;;;;;;4943676;28;20588;-70
2022/11/17 03:55:09;;;;;;;7.72;7.00;;;;;;;;;;4952987;28;20546;-70
2022/11/17 03:57:55;;;;;;;8.13;7.20;;;;;;;;;;4951668;28;20082;-70
2022/11/17 04:00:21;;;;;;;9.52;7.70;;;;;;;;;;4952403;28;20032;-70
2022/11/17 04:02:52;;;;;;;8.13;7.25;;;;;;;;;;4950118;28;20115;-69
2022/11/17 04:05:18;;;;;;;9.05;8.32;;;;;;;;;;4949299;28;20035;-70
2022/11/17 04:07:46;;;;;;;10.43;8.93;;;;;;;;;;4952061;28;20766;-70
2022/11/17 04:10:14;;;;;;;19.33;11.75;;;;;;;;;;4946587;28;20027;-70
2022/11/17 04:16:00;;;;;;;10.40;8.82;;;;;;;;;;4954028;28;20721;-69
2022/11/17 04:18:18;;;;;;;8.80;8.00;;;;;;;;;;4948689;28;20050;-70
2022/11/17 04:20:44;;;;;;;10.38;8.02;;;;;;;;;;4950985;28;20031;-70
2022/11/17 04:23:13;;;;;;;8.02;7.43;;;;;;;;;;4956141;28;20039;-70
2022/11/17 04:28:36;;;;;;;7.80;7.10;;;;;;;;;;4951604;28;20394;-70
2022/11/17 04:31:15;;;;;;;7.22;6.55;;;;;;;;;;4954906;28;20462;-70
2022/11/17 04:33:46;;;;;;;7.68;7.07;;;;;;;;;;4955908;28;20035;-69
2022/11/17 04:36:13;;;;;;;8.02;7.43;;;;;;;;;;4948810;29;20033;-70
2022/11/17 04:38:44;;;;;;;7.80;7.20;;;;;;;;;;4952868;28;20754;-70
2022/11/17 04:43:56;;;;;;;7.38;6.95;;;;;;;;;;4948558;28;20119;-70
2022/11/17 04:46:22;;;;;;;8.80;7.30;;;;;;;;;;4950931;28;20123;-70
2022/11/17 04:48:49;;;;;;;7.57;7.00;;;;;;;;;;4956046;28;20039;-70
2022/11/17 04:51:15;;;;;;;7.72;7.13;;;;;;;;;;4948533;28;20031;-70
2022/11/17 04:53:42;;;;;;;7.78;7.25;;;;;;;;;;4954741;28;20046;-70
2022/11/17 04:56:08;;;;;;;7.80;7.20;;;;;;;;;;4956682;28;20039;-70
2022/11/17 04:58:34;;;;;;;7.50;7.03;;;;;;;;;;4956543;28;20031;-70
2022/11/17 05:01:11;;;;;;;7.40;6.78;;;;;;;;;;4954424;28;20050;-68
2022/11/17 05:03:57;;;;;;;8.00;7.22;;;;;;;;;;4947341;29;20032;-70
2022/11/17 05:06:34;;;;;;;10.35;7.03;;;;;;;;;;4951260;28;20062;-70
2022/11/17 05:09:06;;;;;;;7.78;7.07;;;;;;;;;;4955613;28;20027;-70
2022/11/17 05:14:18;;;;;;;7.57;7.07;;;;;;;;;;4957100;28;20043;-70
2022/11/17 05:19:29;;;;;;;8.15;7.55;;;;;;;;;;4947819;28;20039;-70
2022/11/17 05:21:55;;;;;;;7.53;7.03;;;;;;;;;;4951434;28;20039;-70
2022/11/17 05:24:21;;;;;;;8.13;7.53;;;;;;;;;;4951998;28;20106;-70
2022/11/17 05:26:48;;;;;;;7.82;7.32;;;;;;;;;;4956546;28;20131;-70
2022/11/17 05:29:16;;;;;;;7.63;7.13;;;;;;;;;;4948133;29;20066;-70
2022/11/17 05:31:42;;;;;;;7.60;7.10;;;;;;;;;;4952805;28;20065;-70
2022/11/17 05:34:11;;;;;;;8.27;7.53;;;;;;;;;;4947898;28;20067;-70
2022/11/17 05:36:37;;;;;;;7.20;6.70;;;;;;;;;;4951020;28;20039;-70
2022/11/17 05:39:03;;;;;;;8.00;7.30;;;;;;;;;;4953372;28;20470;-70
2022/11/17 05:41:29;;;;;;;7.45;6.95;;;;;;;;;;4950714;28;20046;-70
2022/11/17 05:43:55;;;;;;;7.65;6.95;;;;;;;;;;4954590;28;20183;-70
2022/11/17 05:46:22;;;;;;;8.10;7.50;;;;;;;;;;4955075;28;20394;-70
2022/11/17 05:48:51;;;;;;;8.43;7.82;;;;;;;;;;4953033;28;20098;-70
2022/11/17 05:51:19;;;;;;;8.45;7.85;;;;;;;;;;4948813;28;20050;-70
2022/11/17 05:53:45;;;;;;;8.50;7.70;;;;;;;;;;4954255;28;20027;-70
2022/11/17 05:56:28;;;;;;;8.38;7.68;;;;;;;;;;4954782;28;20198;-70
2022/11/17 05:59:01;;;;;;;8.00;7.40;;;;;;;;;;4951672;28;20046;-70
2022/11/17 06:01:28;;;;;;;7.93;7.32;;;;;;;;;;4954400;28;20521;-70
2022/11/17 06:03:58;;;;;;;8.65;7.95;;;;;;;;;;4950980;28;20039;-70
2022/11/17 06:06:24;;;;;;;8.70;7.78;;;;;;;;;;4951410;28;20037;-70
2022/11/17 06:08:50;;;;;;;8.20;7.60;;;;;;;;;;4953694;28;20118;-70
2022/11/17 06:11:17;;;;;;;9.13;8.27;;;;;;;;;;4955547;28;20126;-70
2022/11/17 06:13:43;;;;;;;9.48;8.77;;;;;;;;;;4950892;28;20418;-71
2022/11/17 06:16:11;;;;;;;9.32;8.52;;;;;;;;;;4952572;28;20122;-72
2022/11/17 06:18:41;;;;;;;20.50;15.20;;;;;;;;;;4958104;28;20069;-73
2022/11/17 06:21:08;;;;;;;26.30;15.90;;;;;;;;;;4956730;28;20042;-72
2022/11/17 06:23:35;;;;;;;15.52;12.32;;;;;;;;;;4948064;29;20049;-73
2022/11/17 06:26:05;;;;;;;9.63;8.82;;;;;;;;;;4952975;28;20062;-73
2022/11/17 06:28:33;;;;;;;12.80;11.15;;;;;;;;;;4960616;28;20042;-74
2022/11/17 06:30:59;;;;;;;19.48;14.32;;;;;;;;;;4953036;28;20071;-73
2022/11/17 06:33:27;;;;;;;8.82;8.07;;;;;;;;;;4948345;28;20078;-73
2022/11/17 06:35:53;;;;;;;8.20;7.50;;;;;;;;;;4959446;28;20037;-73
2022/11/17 06:38:19;;;;;;;224.68;101.20;;;;;;;;;;4955244;28;20031;-74
2022/11/17 06:40:44;;;;;;;22.60;19.17;;;;;;;;;;4952188;28;20031;-72
2022/11/17 06:43:10;;;;;;;20.50;18.60;;;;;;;;;;4954751;28;20046;-72
2022/11/17 06:45:39;;;;;;;16.77;15.38;;;;;;;;;;4957921;28;20043;-72
2022/11/17 06:48:06;;;;;;;16.95;15.35;;;;;;;;;;4957212;28;20035;-72
2022/11/17 06:50:32;;;;;;;12.10;11.00;;;;;;;;;;4949397;28;20031;-73
2022/11/17 06:53:00;;;;;;;9.75;8.85;;;;;;;;;;4952936;28;20054;-72
2022/11/17 06:55:26;;;;;;;8.18;7.68;;;;;;;;;;4959532;28;20469;-73
2022/11/17 06:57:57;;;;;;;8.93;8.30;;;;;;;;;;4961315;28;20089;-73
2022/11/17 07:00:22;;;;;;;8.70;8.05;;;;;;;;;;4942241;29;20078;-73
2022/11/17 07:02:48;;;;;;;8.10;7.50;;;;;;;;;;4953577;28;20404;-74
2022/11/17 07:05:13;;;;;;;8.98;8.27;;;;;;;;;;4961671;28;20042;-74
2022/11/17 07:07:39;;;;;;;8.75;8.20;;;;;;;;;;4952792;28;20046;-73
2022/11/17 07:10:05;;;;;;;8.65;7.95;;;;;;;;;;4956845;28;20054;-73
2022/11/17 07:12:32;;;;;;;7.97;7.47;;;;;;;;;;4942951;29;20047;-73
2022/11/17 07:14:57;;;;;;;8.52;7.53;;;;;;;;;;4958670;28;20162;-72
2022/11/17 07:17:23;;;;;;;7.90;7.38;;;;;;;;;;4954175;28;20114;-72
2022/11/17 07:19:48;;;;;;;8.30;7.55;;;;;;;;;;4954208;28;20031;-72
2022/11/17 07:22:14;;;;;;;7.55;7.05;;;;;;;;;;4953844;28;20438;-73
2022/11/17 07:24:39;;;;;;;7.70;7.20;;;;;;;;;;4954360;28;20043;-72
2022/11/17 07:27:05;;;;;;;7.85;7.25;;;;;;;;;;4949623;28;20405;-73
2022/11/17 07:29:31;;;;;;;8.15;7.60;;;;;;;;;;4959057;28;20107;-73
2022/11/17 07:31:57;;;;;;;8.38;7.60;;;;;;;;;;4954324;28;20041;-73
2022/11/17 07:34:22;;;;;;;7.50;6.97;;;;;;;;;;4951948;28;20035;-73
2022/11/17 07:36:48;;;;;;;7.75;7.05;;;;;;;;;;4950578;28;20039;-73
2022/11/17 07:39:14;;;;;;;6.93;6.53;;;;;;;;;;4959204;28;20037;-73
2022/11/17 07:41:40;;;;;;;7.47;6.80;;;;;;;;;;4957926;28;20267;-72
2022/11/17 07:44:06;;;;;;;7.40;6.80;;;;;;;;;;4955138;28;20067;-73
2022/11/17 07:46:31;;;;;;;7.05;6.57;;;;;;;;;;4949382;29;20069;-73
2022/11/17 07:48:57;;;;;;;7.72;7.10;;;;;;;;;;4960465;28;20027;-73
2022/11/17 07:51:23;;;;;;;7.22;6.63;;;;;;;;;;4953235;28;20070;-73
2022/11/17 07:53:48;;;;;;;6.93;6.43;;;;;;;;;;4949407;28;20564;-73
2022/11/17 07:56:14;;;;;;;7.13;6.72;;;;;;;;;;4960934;28;20110;-72
2022/11/17 07:58:39;;;;;;;7.60;7.03;;;;;;;;;;4953270;28;20042;-72
2022/11/17 08:01:13;;;;;;;7.95;7.35;;;;;;;;;;4952337;28;20038;-72
2022/11/17 08:03:38;;;;;;;11.15;7.45;;;;;;;;;;4948672;28;20039;-72
2022/11/17 08:06:06;;;;;;;7.93;7.22;;;;;;;;;;4952395;28;20035;-72
2022/11/17 08:08:32;;;;;;;7.47;6.82;;;;;;;;;;4957527;28;20031;-72
2022/11/17 08:11:03;;;;;;;7.43;6.50;;;;;;;;;;4952638;28;20035;-72
2022/11/17 08:13:29;;;;;;;7.03;6.43;;;;;;;;;;4950575;28;20039;-72
2022/11/17 08:15:56;;;;;;;7.00;6.45;;;;;;;;;;4953929;28;20045;-72
2022/11/17 08:18:22;;;;;;;6.47;6.07;;;;;;;;;;4953859;28;20027;-72
2022/11/17 08:20:47;;;;;;;6.80;6.30;;;;;;;;;;4950824;28;20061;-72
2022/11/17 08:23:13;;;;;;;7.35;6.70;;;;;;;;;;4952812;28;20100;-72
2022/11/17 08:25:38;;;;;;;7.28;6.68;;;;;;;;;;4957566;28;20134;-72
2022/11/17 08:28:04;;;;;;;7.03;6.47;;;;;;;;;;4951029;28;20035;-72
2022/11/17 08:30:32;;;;;;;7.22;6.78;;;;;;;;;;4953905;28;20038;-72
2022/11/17 08:32:57;;;;;;;7.57;6.88;;;;;;;;;;4953792;28;20399;-72
2022/11/17 08:35:24;;;;;;;6.57;6.18;;;;;;;;;;4958681;28;20117;-72
2022/11/17 08:37:50;;;;;;;7.47;6.97;;;;;;;;;;4954908;28;20047;-72
2022/11/17 08:40:19;;;;;;;6.90;6.50;;;;;;;;;;4952596;28;20058;-72
2022/11/17 08:42:45;;;;;;;7.30;6.80;;;;;;;;;;4954940;28;20039;-72
2022/11/17 08:45:11;;;;;;;7.05;6.60;;;;;;;;;;4959912;28;20054;-72
2022/11/17 08:47:37;;;;;;;7.25;6.68;;;;;;;;;;4944536;28;20042;-72
2022/11/17 08:50:05;;;;;;;6.97;6.40;;;;;;;;;;4955757;28;20027;-72
2022/11/17 08:52:30;;;;;;;7.03;6.43;;;;;;;;;;4957330;28;20522;-72
2022/11/17 08:54:56;;;;;;;7.53;6.93;;;;;;;;;;4951176;28;20190;-72
2022/11/17 08:57:22;;;;;;;7.78;7.03;;;;;;;;;;4955029;28;20267;-72
2022/11/17 08:59:47;;;;;;;6.97;6.47;;;;;;;;;;4951548;28;20118;-72
2022/11/17 09:02:13;;;;;;;7.20;6.60;;;;;;;;;;4958512;28;20482;-72
2022/11/17 09:04:39;;;;;;;7.32;6.90;;;;;;;;;;4951969;28;20039;-72
2022/11/17 09:07:05;;;;;;;8.50;7.80;;;;;;;;;;4953431;28;20352;-72
2022/11/17 09:09:31;;;;;;;7.18;6.75;;;;;;;;;;4949542;28;20039;-73
2022/11/17 09:11:58;;;;;;;7.28;6.72;;;;;;;;;;4949119;28;20031;-72
2022/11/17 09:14:24;;;;;;;6.93;6.30;;;;;;;;;;4959365;28;20110;-72
2022/11/17 09:16:50;;;;;;;6.80;6.28;;;;;;;;;;4955901;28;20043;-72
2022/11/17 09:19:16;;;;;;;6.40;6.00;;;;;;;;;;4959346;28;20492;-72
2022/11/17 09:21:41;;;;;;;7.05;6.55;;;;;;;;;;4957117;28;20122;-71
2022/11/17 09:24:07;;;;;;;7.63;7.00;;;;;;;;;;4955764;28;20042;-73
2022/11/17 09:26:33;;;;;;;7.47;6.97;;;;;;;;;;4952613;28;20039;-72
2022/11/17 09:29:02;;;;;;;7.18;6.65;;;;;;;;;;4954229;28;20031;-72
2022/11/17 09:31:29;;;;;;;6.55;6.15;;;;;;;;;;4954835;28;20035;-72
2022/11/17 09:33:55;;;;;;;6.57;6.20;;;;;;;;;;4956825;28;20548;-73
2022/11/17 09:36:20;;;;;;;7.40;6.80;;;;;;;;;;4960005;28;20035;-71
2022/11/17 09:38:46;;;;;;;7.47;6.88;;;;;;;;;;4951734;28;20483;-73
2022/11/17 09:41:15;;;;;;;7.35;6.18;;;;;;;;;;4955740;28;20039;-72
2022/11/17 09:43:51;;;;;;;6.68;6.13;;;;;;;;;;4961913;28;20053;-73
2022/11/17 09:46:42;;;;;;;8.27;7.57;;;;;;;;;;4957414;28;20236;-72
2022/11/17 09:49:19;;;;;;;9.15;8.23;;;;;;;;;;4953155;28;20276;-72
2022/11/17 09:51:48;;;;;;;8.05;7.43;;;;;;;;;;4959532;28;20070;-73
2022/11/17 09:54:19;;;;;;;;;;;;;;;;;;4955928;28;20070;-73
2022/11/17 09:56:46;;;;;;;14.75;9.55;;;;;;;;;;4961692;28;19929;-72
2022/11/17 09:59:16;;;;;;;10.90;7.55;;;;;;;;;;4959456;28;20090;-72
2022/11/17 10:01:41;;;;;;;6.65;6.25;;;;;;;;;;4957320;28;20033;-71
2022/11/17 10:04:13;;;;;;;7.63;6.93;;;;;;;;;;4952045;28;20118;-72
2022/11/17 10:06:43;;;;;;;7.38;6.75;;;;;;;;;;4958302;28;20465;-72
2022/11/17 10:09:37;;;;;;;6.95;6.53;;;;;;;;;;4964275;28;20030;-72
2022/11/17 10:12:22;;;;;;;6.50;6.10;;;;;;;;;;4954324;28;20413;-72
2022/11/17 10:14:48;;;;;;;7.13;6.43;;;;;;;;;;4966560;28;20046;-72
2022/11/17 10:17:14;;;;;;;8.65;7.38;;;;;;;;;;4959176;28;20082;-71
2022/11/17 10:19:40;;;;;;;8.60;7.57;;;;;;;;;;4950215;28;20074;-71
2022/11/17 10:22:05;;;;;;;8.68;6.93;;;;;;;;;;4955245;28;20035;-72
2022/11/17 10:24:31;;;;;;;13.75;9.52;;;;;;;;;;4958077;28;20035;-73
2022/11/17 10:26:56;;;;;;;7.18;6.68;;;;;;;;;;4954647;28;20448;-72
2022/11/17 10:29:22;;;;;;;8.00;7.13;;;;;;;;;;4954468;28;20039;-73
2022/11/17 10:31:48;;;;;;;7.47;6.88;;;;;;;;;;4953294;28;21207;-73
2022/11/17 10:34:30;;;;;;;9.13;7.85;;;;;;;;;;4960211;28;20034;-73
2022/11/17 10:37:04;;;;;;;8.95;7.43;;;;;;;;;;4957508;28;20107;-73
2022/11/17 10:39:36;;;;;;;10.10;7.38;;;;;;;;;;4947289;29;20039;-73
2022/11/17 10:42:19;;;;;;;7.57;7.07;;;;;;;;;;4947559;28;20390;-72
2022/11/17 10:44:51;;;;;;;7.53;6.93;;;;;;;;;;4954931;28;20039;-72
2022/11/17 10:47:39;;;;;;;7.28;6.57;;;;;;;;;;4949681;28;20035;-72
2022/11/17 10:50:16;;;;;;;7.80;7.05;;;;;;;;;;4960709;28;20046;-72
2022/11/17 10:52:42;;;;;;;8.18;7.38;;;;;;;;;;4958937;28;20046;-73
2022/11/17 10:55:19;;;;;;;12.80;8.50;;;;;;;;;;4951629;28;20075;-72
2022/11/17 10:57:48;;;;;;;15.73;11.52;;;;;;;;;;4952182;28;20035;-72
2022/11/17 11:00:34;;;;;;;10.85;7.82;;;;;;;;;;4955604;28;20077;-72
2022/11/17 11:03:14;;;;;;;8.63;7.65;;;;;;;;;;4960384;28;20294;-72
2022/11/17 11:06:17;;;;;;;8.02;7.35;;;;;;;;;;4941289;28;20126;-72
2022/11/17 11:08:54;;;;;;;7.90;7.10;;;;;;;;;;4951834;28;20051;-73
2022/11/17 11:11:27;;;;;;;7.97;7.38;;;;;;;;;;4963393;28;20046;-72
2022/11/17 11:14:00;;;;;;;7.03;6.47;;;;;;;;;;4953368;28;20043;-72
2022/11/17 11:16:29;;;;;;;9.35;8.55;;;;;;;;;;4958234;28;20035;-72
2022/11/17 11:18:56;;;;;;;7.70;7.18;;;;;;;;;;4945561;28;20081;-73
2022/11/17 11:22:05;;;;;;;12.70;8.90;;;;;;;;;;4952943;28;20498;-73
2022/11/17 11:24:45;;;;;;;9.43;7.38;;;;;;;;;;4950831;28;20046;-73
2022/11/17 11:27:42;;;;;;;7.38;6.78;;;;;;;;;;4949997;28;20031;-73
2022/11/17 11:30:11;;;;;;;7.93;7.18;;;;;;;;;;4957093;28;20069;-73
2022/11/17 11:32:47;;;;;;;;;;;;;;;;;;4954178;28;20034;-73
2022/11/17 11:35:24;;;;;;;10.93;8.23;;;;;;;;;;4949774;28;19914;-73
2022/11/17 11:38:01;;;;;;;8.70;7.57;;;;;;;;;;4956520;28;20097;-73
2022/11/17 11:40:34;;;;;;;8.85;8.10;;;;;;;;;;4955282;28;20046;-73
2022/11/17 11:43:42;;;;;;;8.13;7.32;;;;;;;;;;4952980;28;20054;-72
2022/11/17 11:46:30;;;;;;;10.27;7.78;;;;;;;;;;4952458;28;20131;-73
2022/11/17 11:49:01;;;;;;;10.13;8.35;;;;;;;;;;4961222;28;20414;-73
2022/11/17 11:51:36;;;;;;;9.60;8.68;;;;;;;;;;4951145;28;20035;-73
2022/11/17 11:54:11;;;;;;;11.45;8.40;;;;;;;;;;4947298;28;20041;-73
2022/11/17 11:56:46;;;;;;;9.20;8.20;;;;;;;;;;4952301;28;20439;-73
2022/11/17 11:59:25;;;;;;;7.95;7.20;;;;;;;;;;4958170;28;20094;-73
2022/11/17 12:02:04;;;;;;;11.20;8.52;;;;;;;;;;4952421;28;20053;-73
2022/11/17 12:04:36;;;;;;;13.63;8.65;;;;;;;;;;4956251;28;20034;-72
2022/11/17 12:07:18;;;;;;;8.52;7.82;;;;;;;;;;4964453;28;20486;-73
2022/11/17 12:10:04;;;;;;;11.40;8.15;;;;;;;;;;4953515;28;20066;-73
2022/11/17 12:12:37;;;;;;;12.18;7.65;;;;;;;;;;4950370;28;20042;-73
2022/11/17 12:15:17;;;;;;;8.95;8.02;;;;;;;;;;4951778;28;20074;-73
2022/11/17 12:18:03;;;;;;;8.85;7.90;;;;;;;;;;4951268;28;20066;-73
2022/11/17 12:20:39;;;;;;;8.77;7.65;;;;;;;;;;4953860;28;20038;-73
2022/11/17 12:23:13;;;;;;;12.50;8.43;;;;;;;;;;4954329;28;20383;-73
2022/11/17 12:25:48;;;;;;;10.23;8.40;;;;;;;;;;4956146;28;20039;-73
2022/11/17 12:28:34;;;;;;;9.90;8.10;;;;;;;;;;4956992;28;20105;-73
2022/11/17 12:31:01;;;;;;;8.25;7.55;;;;;;;;;;4948160;28;20039;-73
2022/11/17 12:33:51;;;;;;;12.95;7.70;;;;;;;;;;4952469;28;20402;-73
2022/11/17 12:36:23;;;;;;;8.45;7.32;;;;;;;;;;4954878;28;20035;-73
2022/11/17 12:38:55;;;;;;;10.38;7.50;;;;;;;;;;4954289;28;20050;-73
2022/11/17 12:41:49;;;;;;;10.57;8.88;;;;;;;;;;4946817;28;20122;-73
2022/11/17 12:44:42;;;;;;;9.63;7.95;;;;;;;;;;4953919;28;20034;-73
2022/11/17 12:47:20;;;;;;;9.93;8.48;;;;;;;;;;4952741;28;20047;-73
2022/11/17 12:50:01;;;;;;;8.50;7.80;;;;;;;;;;4949948;28;20077;-73
2022/11/17 12:52:42;;;;;;;10.00;7.90;;;;;;;;;;4953765;28;20260;-73
2022/11/17 12:55:27;;;;;;;9.30;7.85;;;;;;;;;;4956757;28;20130;-73
2022/11/17 12:58:12;;;;;;;7.90;7.20;;;;;;;;;;4951519;28;20035;-73
2022/11/17 13:00:51;;;;;;;8.63;7.82;;;;;;;;;;4950681;28;20043;-73
2022/11/17 13:03:26;;;;;;;7.85;7.15;;;;;;;;;;4957113;28;20090;-73
2022/11/17 13:06:16;;;;;;;8.30;7.60;;;;;;;;;;4957225;28;20382;-73
2022/11/17 13:08:55;;;;;;;8.23;7.43;;;;;;;;;;4956009;28;20070;-73
2022/11/17 13:11:21;;;;;;;11.27;7.30;;;;;;;;;;4955144;28;20047;-73
2022/11/17 13:13:47;;;;;;;9.85;6.72;;;;;;;;;;4955326;28;20086;-73
2022/11/17 13:16:20;;;;;;;8.45;7.63;;;;;;;;;;4956002;28;20129;-74
2022/11/17 13:18:47;;;;;;;15.02;7.60;;;;;;;;;;4954689;28;20062;-73
2022/11/17 13:21:28;;;;;;;11.15;8.10;;;;;;;;;;4962330;28;20042;-73
2022/11/17 13:23:56;;;;;;;8.45;7.65;;;;;;;;;;4956365;28;20031;-73
2022/11/17 13:26:36;;;;;;;10.25;7.65;;;;;;;;;;4954137;28;20494;-72
2022/11/17 13:29:08;;;;;;;7.95;7.15;;;;;;;;;;4962758;28;20091;-73
2022/11/17 13:31:34;;;;;;;9.20;7.65;;;;;;;;;;4972160;23;20141;-73
2022/11/17 13:34:14;;;;;;;8.38;7.05;;;;;;;;;;5002577;28;20515;-72
2022/11/17 13:36:54;;;;;;;13.90;7.05;;;;;;;;;;5008388;28;20558;-75
2022/11/17 13:39:20;;;;;;;7.28;6.57;;;;;;;;;;5008037;28;20037;-74
2022/11/17 13:41:46;;;;;;;9.95;7.10;;;;;;;;;;5007465;28;20041;-74
2022/11/17 13:44:17;;;;;;;9.00;6.70;;;;;;;;;;5007366;28;20034;-74
2022/11/17 13:46:42;;;;;;;8.20;7.40;;;;;;;;;;5008217;28;20060;-74
2022/11/17 13:49:36;;;;;;;7.88;6.80;;;;;;;;;;5008888;28;20296;-74
2022/11/17 13:52:04;;;;;;;11.38;7.60;;;;;;;;;;5004091;28;20037;-74
2022/11/17 13:54:31;;;;;;;8.73;7.13;;;;;;;;;;5008546;28;20096;-74
2022/11/17 13:57:04;;;;;;;10.10;6.97;;;;;;;;;;5008800;28;20148;-74
2022/11/17 13:59:33;;;;;;;8.80;7.10;;;;;;;;;;5005306;28;20049;-74
2022/11/17 14:02:23;;;;;;;9.18;6.78;;;;;;;;;;5005561;28;20432;-74
2022/11/17 14:05:13;;;;;;;11.02;8.02;;;;;;;;;;5008636;28;20044;-74
2022/11/17 14:07:41;;;;;;;8.68;7.43;;;;;;;;;;5006282;28;20409;-74
2022/11/17 14:10:28;;;;;;;8.45;7.10;;;;;;;;;;5006107;28;20175;-74
2022/11/17 14:12:59;;;;;;;10.65;7.28;;;;;;;;;;5004817;28;20394;-74
2022/11/17 14:15:30;;;;;;;12.07;7.28;;;;;;;;;;5008412;28;20116;-74
2022/11/17 14:17:58;;;;;;;9.18;7.07;;;;;;;;;;5007717;28;20488;-74
2022/11/17 14:20:33;;;;;;;9.40;6.93;;;;;;;;;;5022083;28;20030;-74
2022/11/17 14:23:07;;;;;;;13.85;7.70;;;;;;;;;;5006593;28;20292;-74
2022/11/17 14:25:41;;;;;;;13.18;7.93;;;;;;;;;;5005149;28;20049;-74
2022/11/17 14:28:15;;;;;;;9.07;7.72;;;;;;;;;;5005260;28;20408;-74
2022/11/17 14:30:41;;;;;;;11.55;7.68;;;;;;;;;;5008061;28;20057;-74
2022/11/17 14:33:07;;;;;;;9.65;7.75;;;;;;;;;;5004742;28;20555;-74
2022/11/17 14:35:33;;;;;;;9.65;7.93;;;;;;;;;;5002986;28;20076;-73
2022/11/17 14:38:00;;;;;;;9.77;7.90;;;;;;;;;;5021232;28;20572;-74
2022/11/17 14:40:26;;;;;;;12.13;8.07;;;;;;;;;;5007004;28;20121;-73
2022/11/17 14:42:51;;;;;;;8.93;8.07;;;;;;;;;;5006088;28;20121;-72
2022/11/17 14:45:17;;;;;;;16.05;8.25;;;;;;;;;;5001735;28;20083;-73
2022/11/17 14:47:43;;;;;;;14.18;7.47;;;;;;;;;;5006112;28;20034;-73
2022/11/17 14:50:15;;;;;;;9.90;7.90;;;;;;;;;;5006119;28;20423;-73
2022/11/17 14:52:42;;;;;;;11.38;7.88;;;;;;;;;;5006133;28;20045;-73
2022/11/17 14:55:12;;;;;;;9.65;8.20;;;;;;;;;;5006208;28;20074;-73
2022/11/17 14:57:39;;;;;;;8.82;7.95;;;;;;;;;;5005592;28;20037;-73
2022/11/17 15:00:07;;;;;;;8.68;7.38;;;;;;;;;;5002050;28;20170;-73
2022/11/17 15:02:34;;;;;;;8.25;7.43;;;;;;;;;;5007373;28;20107;-73
2022/11/17 15:04:59;;;;;;;8.75;7.95;;;;;;;;;;5007118;28;20042;-72
2022/11/17 15:07:25;;;;;;;10.07;7.88;;;;;;;;;;5003730;28;20041;-72
2022/11/17 15:09:51;;;;;;;8.95;7.65;;;;;;;;;;5008986;28;20038;-72
2022/11/17 15:12:16;;;;;;;8.55;7.40;;;;;;;;;;5005529;28;20397;-72
2022/11/17 15:14:42;;;;;;;12.23;7.28;;;;;;;;;;5007540;28;20037;-73
2022/11/17 15:17:08;;;;;;;11.02;7.70;;;;;;;;;;5006790;28;20096;-74
2022/11/17 15:19:33;;;;;;;9.95;7.55;;;;;;;;;;5004983;28;20400;-74
2022/11/17 15:21:59;;;;;;;10.98;7.57;;;;;;;;;;5006396;28;20057;-72
2022/11/17 15:24:24;;;;;;;10.20;7.72;;;;;;;;;;5003526;28;20029;-72
2022/11/17 15:26:50;;;;;;;8.43;7.35;;;;;;;;;;5008242;28;20592;-74
2022/11/17 15:29:15;;;;;;;10.57;7.93;;;;;;;;;;5008781;28;20547;-74